sensor_id;sensor_type;location;lat;lon;timestamp;P1;durP1;ratioP1;P2;durP2;ratioP2
17369;SDS011;8802;52.402;4.920;2022-09-12T00:01:05;6.97;;;6.38;;
17369;SDS011;8802;52.402;4.920;2022-09-12T00:03:34;7.68;;;6.97;;
17369;SDS011;8802;52.402;4.920;2022-09-12T00:06:05;8.32;;;7.65;;
17369;SDS011;8802;52.402;4.920;2022-09-12T00:08:33;6.40;;;5.90;;
17369;SDS011;8802;52.402;4.920;2022-09-12T00:11:04;7.53;;;6.82;;
17369;SDS011;8802;52.402;4.920;2022-09-12T00:13:33;7.63;;;7.03;;
17369;SDS011;8802;52.402;4.920;2022-09-12T00:16:00;7.55;;;6.95;;
17369;SDS011;8802;52.402;4.920;2022-09-12T00:18:28;7.90;;;7.18;;
17369;SDS011;8802;52.402;4.920;2022-09-12T00:20:54;9.00;;;8.20;;
17369;SDS011;8802;52.402;4.920;2022-09-12T00:23:21;9.20;;;8.40;;
17369;SDS011;8802;52.402;4.920;2022-09-12T00:25:48;8.68;;;7.97;;
17369;SDS011;8802;52.402;4.920;2022-09-12T00:28:16;7.55;;;6.95;;
17369;SDS011;8802;52.402;4.920;2022-09-12T00:30:44;10.73;;;9.63;;
17369;SDS011;8802;52.402;4.920;2022-09-12T00:33:13;10.60;;;9.70;;
17369;SDS011;8802;52.402;4.920;2022-09-12T00:35:41;9.57;;;8.82;;
17369;SDS011;8802;52.402;4.920;2022-09-12T00:38:08;9.77;;;8.88;;
17369;SDS011;8802;52.402;4.920;2022-09-12T00:40:35;10.65;;;9.85;;
17369;SDS011;8802;52.402;4.920;2022-09-12T00:43:02;11.20;;;10.13;;
17369;SDS011;8802;52.402;4.920;2022-09-12T00:45:31;10.90;;;10.00;;
17369;SDS011;8802;52.402;4.920;2022-09-12T00:48:00;11.68;;;10.68;;
17369;SDS011;8802;52.402;4.920;2022-09-12T00:50:29;10.80;;;9.90;;
17369;SDS011;8802;52.402;4.920;2022-09-12T00:52:58;11.82;;;10.77;;
17369;SDS011;8802;52.402;4.920;2022-09-12T00:55:30;11.27;;;10.38;;
17369;SDS011;8802;52.402;4.920;2022-09-12T00:58:00;10.55;;;9.75;;
17369;SDS011;8802;52.402;4.920;2022-09-12T01:00:33;11.18;;;10.25;;
17369;SDS011;8802;52.402;4.920;2022-09-12T01:03:01;11.75;;;10.75;;
17369;SDS011;8802;52.402;4.920;2022-09-12T01:05:32;13.02;;;11.73;;
17369;SDS011;8802;52.402;4.920;2022-09-12T01:08:00;11.73;;;10.70;;
17369;SDS011;8802;52.402;4.920;2022-09-12T01:10:29;12.63;;;11.52;;
17369;SDS011;8802;52.402;4.920;2022-09-12T01:12:59;14.90;;;13.57;;
17369;SDS011;8802;52.402;4.920;2022-09-12T01:15:28;13.75;;;12.55;;
17369;SDS011;8802;52.402;4.920;2022-09-12T01:18:00;14.70;;;13.50;;
17369;SDS011;8802;52.402;4.920;2022-09-12T01:20:43;12.82;;;11.65;;
17369;SDS011;8802;52.402;4.920;2022-09-12T01:23:27;13.00;;;11.68;;
17369;SDS011;8802;52.402;4.920;2022-09-12T01:26:27;13.68;;;12.57;;
17369;SDS011;8802;52.402;4.920;2022-09-12T01:29:34;12.82;;;11.73;;
17369;SDS011;8802;52.402;4.920;2022-09-12T01:32:22;14.65;;;13.32;;
17369;SDS011;8802;52.402;4.920;2022-09-12T01:34:57;13.85;;;12.55;;
17369;SDS011;8802;52.402;4.920;2022-09-12T01:37:34;13.93;;;12.73;;
17369;SDS011;8802;52.402;4.920;2022-09-12T01:40:08;14.70;;;13.38;;
17369;SDS011;8802;52.402;4.920;2022-09-12T01:42:42;15.27;;;13.88;;
17369;SDS011;8802;52.402;4.920;2022-09-12T01:45:17;14.07;;;12.88;;
17369;SDS011;8802;52.402;4.920;2022-09-12T01:47:52;14.23;;;13.00;;
17369;SDS011;8802;52.402;4.920;2022-09-12T01:50:24;14.15;;;12.98;;
17369;SDS011;8802;52.402;4.920;2022-09-12T01:52:56;17.13;;;15.52;;
17369;SDS011;8802;52.402;4.920;2022-09-12T01:55:28;14.07;;;12.88;;
17369;SDS011;8802;52.402;4.920;2022-09-12T01:58:02;16.17;;;14.88;;
17369;SDS011;8802;52.402;4.920;2022-09-12T02:00:31;14.40;;;13.10;;
17369;SDS011;8802;52.402;4.920;2022-09-12T02:03:03;14.98;;;13.65;;
17369;SDS011;8802;52.402;4.920;2022-09-12T02:05:34;16.27;;;14.82;;
17369;SDS011;8802;52.402;4.920;2022-09-12T02:08:05;15.07;;;13.77;;
17369;SDS011;8802;52.402;4.920;2022-09-12T02:10:36;14.65;;;13.05;;
17369;SDS011;8802;52.402;4.920;2022-09-12T02:13:10;15.02;;;13.60;;
17369;SDS011;8802;52.402;4.920;2022-09-12T02:15:41;16.05;;;14.48;;
17369;SDS011;8802;52.402;4.920;2022-09-12T02:18:14;14.27;;;13.07;;
17369;SDS011;8802;52.402;4.920;2022-09-12T02:20:42;15.38;;;13.77;;
17369;SDS011;8802;52.402;4.920;2022-09-12T02:23:13;15.07;;;13.68;;
17369;SDS011;8802;52.402;4.920;2022-09-12T02:25:45;14.57;;;13.27;;
17369;SDS011;8802;52.402;4.920;2022-09-12T02:28:14;14.27;;;13.07;;
17369;SDS011;8802;52.402;4.920;2022-09-12T02:30:53;13.15;;;11.88;;
17369;SDS011;8802;52.402;4.920;2022-09-12T02:33:28;14.75;;;13.43;;
17369;SDS011;8802;52.402;4.920;2022-09-12T02:36:00;16.15;;;14.55;;
17369;SDS011;8802;52.402;4.920;2022-09-12T02:38:34;16.13;;;14.52;;
17369;SDS011;8802;52.402;4.920;2022-09-12T02:41:06;14.75;;;13.55;;
17369;SDS011;8802;52.402;4.920;2022-09-12T02:43:33;15.63;;;14.23;;
17369;SDS011;8802;52.402;4.920;2022-09-12T02:46:01;14.68;;;13.27;;
17369;SDS011;8802;52.402;4.920;2022-09-12T02:48:30;16.65;;;15.25;;
17369;SDS011;8802;52.402;4.920;2022-09-12T02:51:01;14.68;;;13.07;;
17369;SDS011;8802;52.402;4.920;2022-09-12T02:53:28;16.52;;;15.02;;
17369;SDS011;8802;52.402;4.920;2022-09-12T02:55:55;17.33;;;15.60;;
17369;SDS011;8802;52.402;4.920;2022-09-12T02:58:23;15.57;;;14.20;;
17369;SDS011;8802;52.402;4.920;2022-09-12T03:00:55;14.57;;;13.23;;
17369;SDS011;8802;52.402;4.920;2022-09-12T03:03:38;13.88;;;12.52;;
17369;SDS011;8802;52.402;4.920;2022-09-12T03:06:21;14.60;;;13.27;;
17369;SDS011;8802;52.402;4.920;2022-09-12T03:08:57;16.63;;;15.13;;
17369;SDS011;8802;52.402;4.920;2022-09-12T03:11:42;17.35;;;15.70;;
17369;SDS011;8802;52.402;4.920;2022-09-12T03:14:42;15.00;;;13.70;;
17369;SDS011;8802;52.402;4.920;2022-09-12T03:17:26;16.92;;;15.45;;
17369;SDS011;8802;52.402;4.920;2022-09-12T03:19:59;14.65;;;13.25;;
17369;SDS011;8802;52.402;4.920;2022-09-12T03:22:36;17.02;;;15.43;;
17369;SDS011;8802;52.402;4.920;2022-09-12T03:25:11;16.92;;;15.38;;
17369;SDS011;8802;52.402;4.920;2022-09-12T03:27:43;14.77;;;13.40;;
17369;SDS011;8802;52.402;4.920;2022-09-12T03:30:17;15.32;;;13.93;;
17369;SDS011;8802;52.402;4.920;2022-09-12T03:32:46;16.25;;;14.75;;
17369;SDS011;8802;52.402;4.920;2022-09-12T03:35:17;18.02;;;16.30;;
17369;SDS011;8802;52.402;4.920;2022-09-12T03:37:45;18.02;;;16.42;;
17369;SDS011;8802;52.402;4.920;2022-09-12T03:40:12;21.17;;;19.17;;
17369;SDS011;8802;52.402;4.920;2022-09-12T03:42:39;18.88;;;17.08;;
17369;SDS011;8802;52.402;4.920;2022-09-12T03:45:07;18.88;;;17.25;;
17369;SDS011;8802;52.402;4.920;2022-09-12T03:47:35;17.75;;;16.13;;
17369;SDS011;8802;52.402;4.920;2022-09-12T03:50:02;18.10;;;16.38;;
17369;SDS011;8802;52.402;4.920;2022-09-12T03:52:31;18.27;;;16.55;;
17369;SDS011;8802;52.402;4.920;2022-09-12T03:54:58;17.80;;;16.15;;
17369;SDS011;8802;52.402;4.920;2022-09-12T03:57:25;16.88;;;15.38;;
17369;SDS011;8802;52.402;4.920;2022-09-12T03:59:52;17.15;;;15.60;;
17369;SDS011;8802;52.402;4.920;2022-09-12T04:02:19;17.67;;;16.02;;
17369;SDS011;8802;52.402;4.920;2022-09-12T04:04:46;18.27;;;16.67;;
17369;SDS011;8802;52.402;4.920;2022-09-12T04:07:13;19.75;;;17.85;;
17369;SDS011;8802;52.402;4.920;2022-09-12T04:09:41;18.00;;;16.33;;
17369;SDS011;8802;52.402;4.920;2022-09-12T04:12:08;16.90;;;15.43;;
17369;SDS011;8802;52.402;4.920;2022-09-12T04:14:35;16.83;;;15.27;;
17369;SDS011;8802;52.402;4.920;2022-09-12T04:17:02;19.48;;;17.58;;
17369;SDS011;8802;52.402;4.920;2022-09-12T04:19:29;19.42;;;17.65;;
17369;SDS011;8802;52.402;4.920;2022-09-12T04:21:56;18.08;;;16.38;;
17369;SDS011;8802;52.402;4.920;2022-09-12T04:24:23;19.08;;;17.38;;
17369;SDS011;8802;52.402;4.920;2022-09-12T04:26:51;19.48;;;17.70;;
17369;SDS011;8802;52.402;4.920;2022-09-12T04:29:18;17.17;;;15.55;;
17369;SDS011;8802;52.402;4.920;2022-09-12T04:31:45;20.75;;;18.65;;
17369;SDS011;8802;52.402;4.920;2022-09-12T04:34:12;18.60;;;16.98;;
17369;SDS011;8802;52.402;4.920;2022-09-12T04:36:39;19.50;;;17.60;;
17369;SDS011;8802;52.402;4.920;2022-09-12T04:39:06;17.60;;;15.95;;
17369;SDS011;8802;52.402;4.920;2022-09-12T04:41:34;16.55;;;15.07;;
17369;SDS011;8802;52.402;4.920;2022-09-12T04:44:05;19.55;;;17.85;;
17369;SDS011;8802;52.402;4.920;2022-09-12T04:46:37;17.45;;;15.85;;
17369;SDS011;8802;52.402;4.920;2022-09-12T04:49:06;17.85;;;16.25;;
17369;SDS011;8802;52.402;4.920;2022-09-12T04:51:34;18.38;;;16.75;;
17369;SDS011;8802;52.402;4.920;2022-09-12T04:54:03;19.20;;;17.40;;
17369;SDS011;8802;52.402;4.920;2022-09-12T04:56:31;19.13;;;17.35;;
17369;SDS011;8802;52.402;4.920;2022-09-12T04:59:01;19.70;;;17.83;;
17369;SDS011;8802;52.402;4.920;2022-09-12T05:01:30;17.98;;;16.38;;
17369;SDS011;8802;52.402;4.920;2022-09-12T05:03:57;17.85;;;16.20;;
17369;SDS011;8802;52.402;4.920;2022-09-12T05:06:25;18.13;;;16.45;;
17369;SDS011;8802;52.402;4.920;2022-09-12T05:08:54;18.75;;;17.05;;
17369;SDS011;8802;52.402;4.920;2022-09-12T05:11:23;17.90;;;16.40;;
17369;SDS011;8802;52.402;4.920;2022-09-12T05:13:50;18.52;;;16.77;;
17369;SDS011;8802;52.402;4.920;2022-09-12T05:16:19;18.67;;;16.88;;
17369;SDS011;8802;52.402;4.920;2022-09-12T05:18:47;18.40;;;16.80;;
17369;SDS011;8802;52.402;4.920;2022-09-12T05:21:15;20.30;;;18.38;;
17369;SDS011;8802;52.402;4.920;2022-09-12T05:23:43;16.65;;;15.13;;
17369;SDS011;8802;52.402;4.920;2022-09-12T05:26:12;18.38;;;16.67;;
17369;SDS011;8802;52.402;4.920;2022-09-12T05:28:40;17.75;;;16.15;;
17369;SDS011;8802;52.402;4.920;2022-09-12T05:31:09;20.85;;;18.85;;
17369;SDS011;8802;52.402;4.920;2022-09-12T05:33:40;19.17;;;17.38;;
17369;SDS011;8802;52.402;4.920;2022-09-12T05:36:08;18.52;;;16.83;;
17369;SDS011;8802;52.402;4.920;2022-09-12T05:38:37;18.90;;;16.92;;
17369;SDS011;8802;52.402;4.920;2022-09-12T05:41:04;19.73;;;17.88;;
17369;SDS011;8802;52.402;4.920;2022-09-12T05:43:32;20.02;;;18.13;;
17369;SDS011;8802;52.402;4.920;2022-09-12T05:45:59;20.73;;;18.70;;
17369;SDS011;8802;52.402;4.920;2022-09-12T05:48:27;18.88;;;16.98;;
17369;SDS011;8802;52.402;4.920;2022-09-12T05:50:59;17.42;;;15.73;;
17369;SDS011;8802;52.402;4.920;2022-09-12T05:53:27;18.05;;;16.15;;
17369;SDS011;8802;52.402;4.920;2022-09-12T05:56:00;20.25;;;18.15;;
17369;SDS011;8802;52.402;4.920;2022-09-12T05:58:29;19.92;;;18.05;;
17369;SDS011;8802;52.402;4.920;2022-09-12T06:00:59;22.92;;;20.83;;
17369;SDS011;8802;52.402;4.920;2022-09-12T06:03:27;24.17;;;21.75;;
17369;SDS011;8802;52.402;4.920;2022-09-12T06:05:54;22.90;;;20.50;;
17369;SDS011;8802;52.402;4.920;2022-09-12T06:08:22;21.40;;;19.40;;
17369;SDS011;8802;52.402;4.920;2022-09-12T06:10:49;21.33;;;19.25;;
17369;SDS011;8802;52.402;4.920;2022-09-12T06:13:16;24.88;;;22.38;;
17369;SDS011;8802;52.402;4.920;2022-09-12T06:15:42;23.40;;;21.17;;
17369;SDS011;8802;52.402;4.920;2022-09-12T06:18:09;24.55;;;22.15;;
17369;SDS011;8802;52.402;4.920;2022-09-12T06:20:37;22.40;;;20.27;;
17369;SDS011;8802;52.402;4.920;2022-09-12T06:23:04;19.20;;;17.38;;
17369;SDS011;8802;52.402;4.920;2022-09-12T06:25:32;17.75;;;16.13;;
17369;SDS011;8802;52.402;4.920;2022-09-12T06:27:58;22.52;;;20.40;;
17369;SDS011;8802;52.402;4.920;2022-09-12T06:30:25;21.70;;;19.70;;
17369;SDS011;8802;52.402;4.920;2022-09-12T06:32:53;21.23;;;19.23;;
17369;SDS011;8802;52.402;4.920;2022-09-12T06:35:21;20.35;;;18.38;;
17369;SDS011;8802;52.402;4.920;2022-09-12T06:37:48;21.25;;;19.15;;
17369;SDS011;8802;52.402;4.920;2022-09-12T06:40:15;18.67;;;16.88;;
17369;SDS011;8802;52.402;4.920;2022-09-12T06:42:43;17.02;;;15.43;;
17369;SDS011;8802;52.402;4.920;2022-09-12T06:45:10;17.52;;;15.93;;
17369;SDS011;8802;52.402;4.920;2022-09-12T06:47:40;23.08;;;20.45;;
17369;SDS011;8802;52.402;4.920;2022-09-12T06:50:07;21.75;;;19.45;;
17369;SDS011;8802;52.402;4.920;2022-09-12T06:52:35;22.65;;;20.38;;
17369;SDS011;8802;52.402;4.920;2022-09-12T06:55:01;21.27;;;19.17;;
17369;SDS011;8802;52.402;4.920;2022-09-12T06:57:29;20.48;;;18.58;;
17369;SDS011;8802;52.402;4.920;2022-09-12T07:00:02;20.73;;;18.55;;
17369;SDS011;8802;52.402;4.920;2022-09-12T07:02:30;18.30;;;16.60;;
17369;SDS011;8802;52.402;4.920;2022-09-12T07:04:57;16.40;;;14.82;;
17369;SDS011;8802;52.402;4.920;2022-09-12T07:07:24;19.73;;;17.67;;
17369;SDS011;8802;52.402;4.920;2022-09-12T07:09:51;18.58;;;16.98;;
17369;SDS011;8802;52.402;4.920;2022-09-12T07:12:18;20.75;;;18.75;;
17369;SDS011;8802;52.402;4.920;2022-09-12T07:14:45;16.05;;;14.35;;
17369;SDS011;8802;52.402;4.920;2022-09-12T07:17:13;19.08;;;17.27;;
17369;SDS011;8802;52.402;4.920;2022-09-12T07:19:40;17.08;;;15.48;;
17369;SDS011;8802;52.402;4.920;2022-09-12T07:22:07;17.33;;;15.60;;
17369;SDS011;8802;52.402;4.920;2022-09-12T07:24:34;18.38;;;16.52;;
17369;SDS011;8802;52.402;4.920;2022-09-12T07:27:01;18.17;;;16.35;;
17369;SDS011;8802;52.402;4.920;2022-09-12T07:29:28;18.10;;;16.40;;
17369;SDS011;8802;52.402;4.920;2022-09-12T07:31:55;19.25;;;17.45;;
17369;SDS011;8802;52.402;4.920;2022-09-12T07:34:23;16.90;;;15.30;;
17369;SDS011;8802;52.402;4.920;2022-09-12T07:36:50;19.48;;;17.50;;
17369;SDS011;8802;52.402;4.920;2022-09-12T07:39:16;19.20;;;17.35;;
17369;SDS011;8802;52.402;4.920;2022-09-12T07:41:44;18.48;;;16.73;;
17369;SDS011;8802;52.402;4.920;2022-09-12T07:44:11;16.23;;;14.63;;
17369;SDS011;8802;52.402;4.920;2022-09-12T07:46:38;17.40;;;15.80;;
17369;SDS011;8802;52.402;4.920;2022-09-12T07:49:05;19.52;;;17.70;;
17369;SDS011;8802;52.402;4.920;2022-09-12T07:51:33;18.58;;;16.92;;
17369;SDS011;8802;52.402;4.920;2022-09-12T07:54:00;16.73;;;15.13;;
17369;SDS011;8802;52.402;4.920;2022-09-12T07:56:27;19.65;;;17.75;;
17369;SDS011;8802;52.402;4.920;2022-09-12T07:58:54;16.15;;;14.45;;
17369;SDS011;8802;52.402;4.920;2022-09-12T08:01:21;18.25;;;16.40;;
17369;SDS011;8802;52.402;4.920;2022-09-12T08:03:49;16.95;;;15.45;;
17369;SDS011;8802;52.402;4.920;2022-09-12T08:06:19;18.13;;;16.42;;
17369;SDS011;8802;52.402;4.920;2022-09-12T08:08:49;17.92;;;16.13;;
17369;SDS011;8802;52.402;4.920;2022-09-12T08:11:18;17.33;;;15.73;;
17369;SDS011;8802;52.402;4.920;2022-09-12T08:13:46;14.85;;;13.45;;
17369;SDS011;8802;52.402;4.920;2022-09-12T08:16:15;16.05;;;14.65;;
17369;SDS011;8802;52.402;4.920;2022-09-12T08:18:44;17.25;;;15.57;;
17369;SDS011;8802;52.402;4.920;2022-09-12T08:21:11;17.38;;;15.77;;
17369;SDS011;8802;52.402;4.920;2022-09-12T08:23:40;14.40;;;12.90;;
17369;SDS011;8802;52.402;4.920;2022-09-12T08:26:08;16.67;;;15.15;;
17369;SDS011;8802;52.402;4.920;2022-09-12T08:28:36;17.08;;;15.48;;
17369;SDS011;8802;52.402;4.920;2022-09-12T08:31:05;13.52;;;12.32;;
17369;SDS011;8802;52.402;4.920;2022-09-12T08:33:33;13.05;;;11.80;;
17369;SDS011;8802;52.402;4.920;2022-09-12T08:36:02;14.20;;;12.90;;
17369;SDS011;8802;52.402;4.920;2022-09-12T08:38:30;12.40;;;11.20;;
17369;SDS011;8802;52.402;4.920;2022-09-12T08:40:59;13.70;;;12.45;;
17369;SDS011;8802;52.402;4.920;2022-09-12T08:43:34;15.98;;;14.30;;
17369;SDS011;8802;52.402;4.920;2022-09-12T08:46:15;15.65;;;14.15;;
17369;SDS011;8802;52.402;4.920;2022-09-12T08:48:46;12.85;;;11.65;;
17369;SDS011;8802;52.402;4.920;2022-09-12T08:51:14;15.95;;;14.43;;
17369;SDS011;8802;52.402;4.920;2022-09-12T08:53:43;15.32;;;13.93;;
17369;SDS011;8802;52.402;4.920;2022-09-12T08:56:12;15.18;;;13.77;;
17369;SDS011;8802;52.402;4.920;2022-09-12T08:58:42;14.55;;;13.25;;
17369;SDS011;8802;52.402;4.920;2022-09-12T09:01:12;15.48;;;13.98;;
17369;SDS011;8802;52.402;4.920;2022-09-12T09:03:54;15.35;;;13.85;;
17369;SDS011;8802;52.402;4.920;2022-09-12T09:06:47;15.45;;;14.05;;
17369;SDS011;8802;52.402;4.920;2022-09-12T09:09:24;13.85;;;12.48;;
17369;SDS011;8802;52.402;4.920;2022-09-12T09:12:05;14.10;;;12.57;;
17369;SDS011;8802;52.402;4.920;2022-09-12T09:14:58;13.07;;;11.88;;
17369;SDS011;8802;52.402;4.920;2022-09-12T09:17:38;11.70;;;10.65;;
17369;SDS011;8802;52.402;4.920;2022-09-12T09:20:12;13.07;;;11.80;;
17369;SDS011;8802;52.402;4.920;2022-09-12T09:22:48;13.05;;;11.80;;
17369;SDS011;8802;52.402;4.920;2022-09-12T09:25:18;12.05;;;10.93;;
17369;SDS011;8802;52.402;4.920;2022-09-12T09:27:50;11.55;;;10.45;;
17369;SDS011;8802;52.402;4.920;2022-09-12T09:30:24;13.43;;;12.05;;
17369;SDS011;8802;52.402;4.920;2022-09-12T09:32:53;12.38;;;11.30;;
17369;SDS011;8802;52.402;4.920;2022-09-12T09:35:25;11.88;;;10.63;;
17369;SDS011;8802;52.402;4.920;2022-09-12T09:38:06;10.50;;;9.50;;
17369;SDS011;8802;52.402;4.920;2022-09-12T09:40:43;11.25;;;10.25;;
17369;SDS011;8802;52.402;4.920;2022-09-12T09:43:17;13.25;;;12.05;;
17369;SDS011;8802;52.402;4.920;2022-09-12T09:45:49;10.23;;;9.27;;
17369;SDS011;8802;52.402;4.920;2022-09-12T09:48:17;10.52;;;9.52;;
17369;SDS011;8802;52.402;4.920;2022-09-12T09:50:46;13.73;;;11.25;;
17369;SDS011;8802;52.402;4.920;2022-09-12T09:53:25;11.70;;;10.70;;
17369;SDS011;8802;52.402;4.920;2022-09-12T09:56:00;10.18;;;9.30;;
17369;SDS011;8802;52.402;4.920;2022-09-12T09:58:34;10.95;;;9.98;;
17369;SDS011;8802;52.402;4.920;2022-09-12T10:01:03;11.32;;;10.35;;
17369;SDS011;8802;52.402;4.920;2022-09-12T10:03:37;12.88;;;9.77;;
17369;SDS011;8802;52.402;4.920;2022-09-12T10:06:06;10.18;;;9.27;;
17369;SDS011;8802;52.402;4.920;2022-09-12T10:08:46;9.65;;;8.65;;
17369;SDS011;8802;52.402;4.920;2022-09-12T10:11:16;11.85;;;10.75;;
17369;SDS011;8802;52.402;4.920;2022-09-12T10:13:51;9.68;;;8.88;;
17369;SDS011;8802;52.402;4.920;2022-09-12T10:16:23;11.32;;;10.30;;
17369;SDS011;8802;52.402;4.920;2022-09-12T10:18:52;14.40;;;12.93;;
17369;SDS011;8802;52.402;4.920;2022-09-12T10:21:21;10.40;;;9.50;;
17369;SDS011;8802;52.402;4.920;2022-09-12T10:24:02;11.95;;;10.85;;
17369;SDS011;8802;52.402;4.920;2022-09-12T10:26:32;10.63;;;9.52;;
17369;SDS011;8802;52.402;4.920;2022-09-12T10:29:08;10.73;;;9.77;;
17369;SDS011;8802;52.402;4.920;2022-09-12T10:31:45;11.63;;;10.55;;
17369;SDS011;8802;52.402;4.920;2022-09-12T10:34:20;9.27;;;8.40;;
17369;SDS011;8802;52.402;4.920;2022-09-12T10:36:51;9.82;;;8.88;;
17369;SDS011;8802;52.402;4.920;2022-09-12T10:39:20;10.52;;;9.63;;
17369;SDS011;8802;52.402;4.920;2022-09-12T10:41:48;9.95;;;8.55;;
17369;SDS011;8802;52.402;4.920;2022-09-12T10:44:16;9.63;;;8.82;;
17369;SDS011;8802;52.402;4.920;2022-09-12T10:46:51;9.18;;;8.32;;
17369;SDS011;8802;52.402;4.920;2022-09-12T10:49:20;9.23;;;8.32;;
17369;SDS011;8802;52.402;4.920;2022-09-12T10:51:49;8.88;;;8.07;;
17369;SDS011;8802;52.402;4.920;2022-09-12T10:54:18;8.20;;;7.22;;
17369;SDS011;8802;52.402;4.920;2022-09-12T10:56:51;9.02;;;8.23;;
17369;SDS011;8802;52.402;4.920;2022-09-12T10:59:42;8.40;;;7.60;;
17369;SDS011;8802;52.402;4.920;2022-09-12T11:02:26;7.88;;;7.25;;
17369;SDS011;8802;52.402;4.920;2022-09-12T11:04:57;8.55;;;7.72;;
17369;SDS011;8802;52.402;4.920;2022-09-12T11:07:38;7.30;;;6.60;;
17369;SDS011;8802;52.402;4.920;2022-09-12T11:10:23;7.88;;;7.18;;
17369;SDS011;8802;52.402;4.920;2022-09-12T11:13:00;8.73;;;7.93;;
17369;SDS011;8802;52.402;4.920;2022-09-12T11:15:40;7.97;;;7.22;;
17369;SDS011;8802;52.402;4.920;2022-09-12T11:18:31;9.65;;;8.82;;
17369;SDS011;8802;52.402;4.920;2022-09-12T11:24:05;8.52;;;7.85;;
17369;SDS011;8802;52.402;4.920;2022-09-12T11:26:58;9.52;;;8.63;;
